createdAt,value
2023-03-07T00:00:30.272Z,69.7857
2023-03-07T00:01:30.314Z,69.7857
2023-03-07T00:02:30.377Z,69.7143
2023-03-07T00:03:30.451Z,69.7143
2023-03-07T00:04:30.422Z,69.6429
2023-03-07T00:05:30.458Z,69.6429
2023-03-07T00:06:30.506Z,69.5714
2023-03-07T00:07:30.516Z,69.5714
2023-03-07T00:08:30.551Z,69.5
2023-03-07T00:09:30.573Z,69.5
2023-03-07T00:10:30.605Z,69.5
2023-03-07T00:11:30.650Z,69.5
2023-03-07T00:12:30.685Z,69.4286
2023-03-07T00:13:30.727Z,69.4286
2023-03-07T00:14:30.749Z,69.4286
2023-03-07T00:15:30.784Z,69.4286
2023-03-07T00:16:30.874Z,69.4286
2023-03-07T00:17:30.863Z,69.3571
2023-03-07T00:18:30.893Z,69.3571
2023-03-07T00:19:30.916Z,69.3571
2023-03-07T00:20:30.950Z,69.3571
2023-03-07T00:21:30.994Z,69.2857
2023-03-07T00:22:31.042Z,69.2857
2023-03-07T00:23:31.067Z,69.2857
2023-03-07T00:24:31.100Z,69.2857
2023-03-07T00:25:31.135Z,69.3571
2023-03-07T00:26:31.176Z,69.3571
2023-03-07T00:27:31.215Z,69.3571
2023-03-07T00:28:31.250Z,69.3571
2023-03-07T00:29:31.282Z,69.3571
2023-03-07T00:30:31.312Z,69.3571
2023-03-07T00:31:31.444Z,69.4286
2023-03-07T00:32:31.413Z,69.4286
2023-03-07T00:33:31.421Z,69.4286
2023-03-07T00:34:31.455Z,69.4286
2023-03-07T00:35:31.484Z,69.4286
2023-03-07T00:36:31.519Z,69.3571
2023-03-07T00:37:31.555Z,69.3571
2023-03-07T00:38:31.613Z,69.2857
2023-03-07T00:39:31.623Z,69.2857
2023-03-07T00:40:31.659Z,69.2857
2023-03-07T00:41:31.691Z,69.3571
2023-03-07T00:42:31.719Z,69.3571
2023-03-07T00:43:31.759Z,69.4286
2023-03-07T00:44:31.781Z,69.4286
2023-03-07T00:45:31.834Z,69.4286
2023-03-07T00:46:31.838Z,69.4286
2023-03-07T00:47:31.872Z,69.4286
2023-03-07T00:48:31.907Z,69.5
2023-03-07T00:49:31.950Z,69.5
2023-03-07T00:50:31.974Z,69.5714
2023-03-07T00:51:32.012Z,69.6429
2023-03-07T00:52:32.036Z,69.5714
2023-03-07T00:53:32.082Z,69.5714
2023-03-07T00:54:32.130Z,69.6429
2023-03-07T00:55:32.146Z,69.5714
2023-03-07T00:56:32.179Z,69.6429
2023-03-07T00:57:32.193Z,69.5714
2023-03-07T00:58:32.225Z,69.5714
2023-03-07T00:59:32.277Z,69.5714
2023-03-07T01:00:32.313Z,69.5714
2023-03-07T01:01:32.344Z,69.5714
2023-03-07T01:02:32.381Z,69.5714
2023-03-07T01:03:32.413Z,69.6429
2023-03-07T01:04:32.562Z,69.5714
2023-03-07T01:05:32.483Z,69.6429
2023-03-07T01:06:32.518Z,69.5714
2023-03-07T01:07:32.559Z,69.5714
2023-03-07T01:08:32.609Z,69.6429
2023-03-07T01:09:32.620Z,69.7143
2023-03-07T01:10:32.662Z,69.7143
2023-03-07T01:11:32.693Z,69.7143
2023-03-07T01:12:32.725Z,69.7857
2023-03-07T01:13:32.774Z,69.7857
2023-03-07T01:14:32.790Z,69.7857
2023-03-07T01:15:32.824Z,69.8571
2023-03-07T01:16:33.076Z,69.8571
2023-03-07T01:17:32.875Z,69.8571
2023-03-07T01:18:32.913Z,69.8571
2023-03-07T01:19:32.965Z,69.8571
2023-03-07T01:20:32.986Z,69.9286
2023-03-07T01:21:33.014Z,69.9286
2023-03-07T01:22:33.058Z,69.9286
2023-03-07T01:23:33.086Z,70
2023-03-07T01:24:33.134Z,70.0714
2023-03-07T01:25:33.159Z,70.0714
2023-03-07T01:26:33.198Z,70.0714
2023-03-07T01:27:33.232Z,70.1429
2023-03-07T01:28:33.271Z,70.1429
2023-03-07T01:29:33.304Z,70.1429
2023-03-07T01:30:33.342Z,70.1429
2023-03-07T01:31:33.435Z,70.2143
2023-03-07T01:32:33.434Z,70.2143
2023-03-07T01:33:33.475Z,70.2143
2023-03-07T01:34:33.476Z,70.2143
2023-03-07T01:35:33.555Z,70.2143
2023-03-07T01:36:33.607Z,70.2143
2023-03-07T01:37:33.592Z,70.2143
2023-03-07T01:38:33.628Z,70.2143
2023-03-07T01:39:33.660Z,70.2143
2023-03-07T01:40:33.698Z,70.2143
2023-03-07T01:41:33.754Z,70.2143
2023-03-07T01:42:33.765Z,70.2857
2023-03-07T01:43:33.799Z,70.2857
2023-03-07T01:44:33.830Z,70.2857
2023-03-07T01:45:33.935Z,70.2857
2023-03-07T01:46:33.921Z,70.3571
2023-03-07T01:47:33.945Z,70.2857
2023-03-07T01:48:33.998Z,70.2857
2023-03-07T01:49:34.132Z,70.2857
2023-03-07T01:50:34.066Z,70.2857
2023-03-07T01:51:34.097Z,70.2857
2023-03-07T01:52:34.118Z,70.2857
2023-03-07T01:53:34.168Z,70.2143
2023-03-07T01:54:34.194Z,70.2143
2023-03-07T01:55:34.223Z,70.2143
2023-03-07T01:56:34.256Z,70.2143
2023-03-07T01:57:34.307Z,70.2143
2023-03-07T01:58:34.312Z,70.1429
2023-03-07T01:59:34.350Z,70.1429
2023-03-07T02:00:34.382Z,70.2143
2023-03-07T02:01:34.493Z,70.2143
2023-03-07T02:02:34.450Z,70.2143
2023-03-07T02:03:34.474Z,70.2143
2023-03-07T02:04:34.560Z,70.2143
2023-03-07T02:05:34.540Z,70.2143
2023-03-07T02:06:34.579Z,70.2143
2023-03-07T02:07:34.620Z,70.2143
2023-03-07T02:08:34.640Z,70.1429
2023-03-07T02:09:34.677Z,70.1429
2023-03-07T02:10:34.700Z,70.1429
2023-03-07T02:11:34.736Z,70.1429
2023-03-07T02:12:34.783Z,70.1429
2023-03-07T02:13:34.808Z,70.0714
2023-03-07T02:14:34.850Z,70.0714
2023-03-07T02:15:35.000Z,70.0714
2023-03-07T02:16:34.906Z,70.0714
2023-03-07T02:17:34.945Z,70.0714
2023-03-07T02:18:34.981Z,70.0714
2023-03-07T02:19:35.014Z,70.0714
2023-03-07T02:20:35.063Z,70.0714
2023-03-07T02:21:35.079Z,70.0714
2023-03-07T02:22:35.126Z,70.0714
2023-03-07T02:23:35.151Z,70
2023-03-07T02:24:35.186Z,70
2023-03-07T02:25:35.230Z,70
2023-03-07T02:26:35.256Z,70
2023-03-07T02:27:35.289Z,70
2023-03-07T02:28:35.323Z,69.9286
2023-03-07T02:29:35.356Z,69.9286
2023-03-07T02:30:35.498Z,69.8571
2023-03-07T02:31:35.433Z,69.8571
2023-03-07T02:32:35.530Z,69.8571
2023-03-07T02:33:35.496Z,69.8571
2023-03-07T02:34:35.515Z,69.9286
2023-03-07T02:35:35.569Z,69.9286
2023-03-07T02:36:35.603Z,69.9286
2023-03-07T02:37:35.635Z,69.9286
2023-03-07T02:38:35.657Z,69.9286
2023-03-07T02:39:35.682Z,69.9286
2023-03-07T02:40:35.716Z,69.9286
2023-03-07T02:41:35.771Z,69.8571
2023-03-07T02:42:35.798Z,69.8571
2023-03-07T02:43:35.824Z,69.8571
2023-03-07T02:44:35.855Z,69.8571
2023-03-07T02:45:35.891Z,69.8571
2023-03-07T02:46:35.982Z,69.8571
2023-03-07T02:47:35.965Z,69.7857
2023-03-07T02:48:35.986Z,69.7857
2023-03-07T02:49:36.021Z,69.7857
2023-03-07T02:50:36.051Z,69.7857
2023-03-07T02:51:36.084Z,69.7143
2023-03-07T02:52:36.125Z,69.7143
2023-03-07T02:53:36.150Z,69.7143
2023-03-07T02:54:36.184Z,69.6429
2023-03-07T02:55:36.223Z,69.6429
2023-03-07T02:56:36.265Z,69.6429
2023-03-07T02:57:36.311Z,69.6429
2023-03-07T02:58:36.345Z,69.6429
2023-03-07T02:59:36.372Z,69.6429
2023-03-07T03:00:36.415Z,69.6429
2023-03-07T03:01:36.530Z,69.6429
2023-03-07T03:02:36.520Z,69.6429
2023-03-07T03:03:36.522Z,69.6429
2023-03-07T03:04:36.581Z,69.6429
2023-03-07T03:05:36.590Z,69.6429
2023-03-07T03:06:36.620Z,69.5714
2023-03-07T03:07:36.653Z,69.5714
2023-03-07T03:08:36.671Z,69.5714
2023-03-07T03:09:36.708Z,69.5714
2023-03-07T03:10:36.745Z,69.5714
2023-03-07T03:11:36.775Z,69.5714
2023-03-07T03:12:36.812Z,69.5714
2023-03-07T03:13:38.900Z,69.5714
2023-03-07T03:14:36.898Z,69.5714
2023-03-07T03:15:36.921Z,69.5
2023-03-07T03:16:36.961Z,69.5
2023-03-07T03:17:36.981Z,69.5
2023-03-07T03:18:37.014Z,69.5
2023-03-07T03:19:37.066Z,69.5
2023-03-07T03:20:37.088Z,69.5
2023-03-07T03:21:37.152Z,69.4286
2023-03-07T03:22:37.162Z,69.4286
2023-03-07T03:23:37.210Z,69.4286
2023-03-07T03:24:37.254Z,69.4286
2023-03-07T03:25:39.239Z,69.4286
2023-03-07T03:26:37.320Z,69.4286
2023-03-07T03:27:37.345Z,69.3571
2023-03-07T03:28:37.373Z,69.3571
2023-03-07T03:29:37.413Z,69.3571
2023-03-07T03:30:37.441Z,69.2857
2023-03-07T03:31:37.563Z,69.2857
2023-03-07T03:32:37.573Z,69.3571
2023-03-07T03:33:37.558Z,69.2857
2023-03-07T03:34:37.590Z,69.2857
2023-03-07T03:35:37.649Z,69.2857
2023-03-07T03:36:37.658Z,69.2143
2023-03-07T03:37:37.702Z,69.2143
2023-03-07T03:38:37.722Z,69.2143
2023-03-07T03:39:37.757Z,69.2143
2023-03-07T03:40:37.793Z,69.1429
2023-03-07T03:41:37.818Z,69.1429
2023-03-07T03:42:37.853Z,69.1429
2023-03-07T03:43:37.899Z,69.1429
2023-03-07T03:44:37.920Z,69.0714
2023-03-07T03:45:37.957Z,69.0714
2023-03-07T03:46:38.040Z,69.0714
2023-03-07T03:47:38.039Z,69
2023-03-07T03:48:38.086Z,69
2023-03-07T03:49:38.095Z,69.0714
2023-03-07T03:50:38.139Z,69.0714
2023-03-07T03:51:38.171Z,69.0714
2023-03-07T03:52:38.204Z,69.0714
2023-03-07T03:53:38.262Z,69
2023-03-07T03:54:38.286Z,69
2023-03-07T03:55:38.306Z,69
2023-03-07T03:56:38.333Z,68.9286
2023-03-07T03:57:38.368Z,68.9286
2023-03-07T03:58:38.414Z,68.9286
2023-03-07T03:59:38.436Z,68.8571
2023-03-07T04:00:38.465Z,68.8571
2023-03-07T04:01:38.607Z,68.8571
2023-03-07T04:02:38.794Z,68.8571
2023-03-07T04:03:38.583Z,68.7857
2023-03-07T04:04:38.601Z,68.7857
2023-03-07T04:05:38.684Z,68.7857
2023-03-07T04:06:38.680Z,68.7143
2023-03-07T04:07:38.710Z,68.7143
2023-03-07T04:08:38.745Z,68.8571
2023-03-07T04:09:38.778Z,68.9286
2023-03-07T04:10:38.816Z,69.0714
2023-03-07T04:11:38.846Z,69.0714
2023-03-07T04:12:38.884Z,69.0714
2023-03-07T04:13:38.906Z,69.0714
2023-03-07T04:14:38.929Z,69.0714
2023-03-07T04:15:38.960Z,69.2143
2023-03-07T04:16:39.040Z,69.2143
2023-03-07T04:17:39.025Z,69.2857
2023-03-07T04:18:39.048Z,69.3571
2023-03-07T04:19:39.079Z,69.3571
2023-03-07T04:20:39.117Z,69.4286
2023-03-07T04:21:39.146Z,69.4286
2023-03-07T04:22:39.185Z,69.4286
2023-03-07T04:23:39.217Z,69.4286
2023-03-07T04:24:39.249Z,69.4286
2023-03-07T04:25:39.321Z,69.4286
2023-03-07T04:26:39.322Z,69.5
2023-03-07T04:27:39.347Z,69.5714
2023-03-07T04:28:39.408Z,69.7143
2023-03-07T04:29:39.420Z,69.7857
2023-03-07T04:30:39.453Z,69.9286
2023-03-07T04:31:39.528Z,70
2023-03-07T04:32:39.684Z,70.0714
2023-03-07T04:33:39.556Z,70.1429
2023-03-07T04:34:39.577Z,70.2857
2023-03-07T04:35:39.678Z,70.3571
2023-03-07T04:36:39.647Z,70.5
2023-03-07T04:37:39.689Z,70.5714
2023-03-07T04:38:39.719Z,70.5714
2023-03-07T04:39:39.756Z,70.6429
2023-03-07T04:40:39.798Z,70.7143
2023-03-07T04:41:39.816Z,70.7857
2023-03-07T04:42:39.867Z,70.8571
2023-03-07T04:43:39.881Z,70.9286
2023-03-07T04:44:39.932Z,71
2023-03-07T04:45:39.998Z,71.0714
2023-03-07T04:46:39.997Z,71.2143
2023-03-07T04:47:40.020Z,71.3571
2023-03-07T04:48:40.060Z,71.5
2023-03-07T04:49:40.095Z,71.6429
2023-03-07T04:50:40.114Z,71.7143
2023-03-07T04:51:41.927Z,71.7143
2023-03-07T04:52:40.192Z,71.7857
2023-03-07T04:53:40.232Z,71.8571
2023-03-07T04:54:40.286Z,71.9286
2023-03-07T04:55:40.296Z,72
2023-03-07T04:56:40.345Z,72.0714
2023-03-07T04:57:40.375Z,72.1429
2023-03-07T04:58:40.382Z,72.2857
2023-03-07T04:59:40.428Z,72.3571
2023-03-07T05:00:40.451Z,72.3571
2023-03-07T05:01:40.520Z,72.3571
2023-03-07T05:02:40.576Z,72.4286
2023-03-07T05:03:40.592Z,72.5
2023-03-07T05:04:40.649Z,72.5714
2023-03-07T05:05:40.622Z,72.6429
2023-03-07T05:06:40.672Z,72.7857
2023-03-07T05:07:40.705Z,72.8571
2023-03-07T05:08:40.737Z,72.8571
2023-03-07T05:09:40.763Z,72.9286
2023-03-07T05:10:40.783Z,73
2023-03-07T05:11:40.827Z,73
2023-03-07T05:12:40.869Z,73.0714
2023-03-07T05:13:40.902Z,73.1429
2023-03-07T05:14:40.921Z,73.0714
2023-03-07T05:15:41.004Z,73.0714
2023-03-07T05:16:40.981Z,73.1429
2023-03-07T05:17:41.025Z,73.2143
2023-03-07T05:18:41.065Z,73.2857
2023-03-07T05:19:41.082Z,73.2857
2023-03-07T05:20:41.122Z,73.2857
2023-03-07T05:21:41.145Z,73.3571
2023-03-07T05:22:41.180Z,73.3571
2023-03-07T05:23:41.228Z,73.3571
2023-03-07T05:24:41.256Z,73.4286
2023-03-07T05:25:43.489Z,73.4286
2023-03-07T05:26:41.320Z,73.5
2023-03-07T05:27:41.358Z,73.5
2023-03-07T05:28:41.423Z,73.5
2023-03-07T05:29:41.427Z,73.5714
2023-03-07T05:30:41.455Z,73.5714
2023-03-07T05:31:41.486Z,73.5714
2023-03-07T05:32:41.533Z,73.5
2023-03-07T05:33:41.563Z,73.5
2023-03-07T05:34:41.600Z,73.5
2023-03-07T05:35:41.694Z,73.5
2023-03-07T05:36:41.691Z,73.5
2023-03-07T05:37:41.711Z,73.5
2023-03-07T05:38:41.735Z,73.5714
2023-03-07T05:39:41.761Z,73.5714
2023-03-07T05:40:41.803Z,73.5714
2023-03-07T05:41:41.834Z,73.6429
2023-03-07T05:42:41.869Z,73.6429
2023-03-07T05:43:41.914Z,73.6429
2023-03-07T05:44:41.939Z,73.6429
2023-03-07T05:45:41.970Z,73.6429
2023-03-07T05:46:42.021Z,73.6429
2023-03-07T05:47:42.070Z,73.6429
2023-03-07T05:48:42.078Z,73.6429
2023-03-07T05:49:42.108Z,73.7143
2023-03-07T05:50:42.147Z,73.6429
2023-03-07T05:51:42.211Z,73.5
2023-03-07T05:52:42.220Z,73.5
2023-03-07T05:53:42.253Z,73.5
2023-03-07T05:54:42.306Z,73.5
2023-03-07T05:55:42.324Z,73.4286
2023-03-07T05:56:42.370Z,73.3571
2023-03-07T05:57:42.384Z,73.3571
2023-03-07T05:58:42.423Z,73.3571
2023-03-07T05:59:42.447Z,73.3571
2023-03-07T06:00:42.484Z,73.3571
2023-03-07T06:01:42.520Z,73.3571
2023-03-07T06:02:42.611Z,73.3571
2023-03-07T06:03:42.586Z,73.3571
2023-03-07T06:04:42.606Z,73.3571
2023-03-07T06:05:42.649Z,73.3571
2023-03-07T06:06:42.675Z,73.2857
2023-03-07T06:07:42.718Z,73.2857
2023-03-07T06:08:42.752Z,73.2857
2023-03-07T06:09:42.791Z,73.2857
2023-03-07T06:10:42.811Z,73.2857
2023-03-07T06:11:42.841Z,73.2857
2023-03-07T06:12:42.877Z,73.2857
2023-03-07T06:13:42.926Z,73.2857
2023-03-07T06:14:42.940Z,73.2143
2023-03-07T06:15:43.041Z,73.2143
2023-03-07T06:16:43.005Z,73.1429
2023-03-07T06:17:43.038Z,73.1429
2023-03-07T06:18:43.086Z,73.0714
2023-03-07T06:19:43.111Z,73.1429
2023-03-07T06:20:43.165Z,73
2023-03-07T06:21:43.210Z,72.9286
2023-03-07T06:22:43.219Z,72.9286
2023-03-07T06:23:43.250Z,72.7857
2023-03-07T06:24:43.290Z,72.7143
2023-03-07T06:25:43.319Z,72.7143
2023-03-07T06:26:43.354Z,72.6429
2023-03-07T06:27:43.380Z,72.5714
2023-03-07T06:28:43.422Z,72.5
2023-03-07T06:29:43.447Z,72.5
2023-03-07T06:30:43.480Z,72.4286
2023-03-07T06:31:43.603Z,72.3571
2023-03-07T06:32:43.536Z,72.3571
2023-03-07T06:33:43.585Z,72.2143
2023-03-07T06:34:43.629Z,72
2023-03-07T06:35:43.687Z,72
2023-03-07T06:36:43.679Z,71.9286
2023-03-07T06:37:43.720Z,71.8571
2023-03-07T06:38:43.742Z,71.8571
2023-03-07T06:39:43.768Z,71.7857
2023-03-07T06:40:43.805Z,71.6429
2023-03-07T06:41:43.845Z,71.5714
2023-03-07T06:42:43.878Z,71.5
2023-03-07T06:43:43.922Z,71.5
2023-03-07T06:44:44.112Z,71.4286
2023-03-07T06:45:44.027Z,71.3571
2023-03-07T06:46:44.020Z,71.3571
2023-03-07T06:47:44.050Z,71.2857
2023-03-07T06:48:44.088Z,71.3571
2023-03-07T06:49:44.127Z,71.2857
2023-03-07T06:50:44.160Z,71.2857
2023-03-07T06:51:44.196Z,71.3571
2023-03-07T06:52:44.240Z,71.2143
2023-03-07T06:53:44.281Z,71.0714
2023-03-07T06:54:44.303Z,71
2023-03-07T06:55:44.355Z,70.9286
2023-03-07T06:56:45.479Z,70.7857
2023-03-07T06:57:44.421Z,70.7143
2023-03-07T06:58:44.445Z,70.7857
2023-03-07T06:59:44.493Z,70.8571
2023-03-07T07:00:44.516Z,70.7857
2023-03-07T07:01:44.732Z,70.6429
2023-03-07T07:02:44.737Z,70.5714
2023-03-07T07:03:44.609Z,70.5
2023-03-07T07:04:44.645Z,70.4286
2023-03-07T07:05:44.683Z,70.2857
2023-03-07T07:06:44.713Z,70.2143
2023-03-07T07:07:44.750Z,70.2143
2023-03-07T07:08:44.806Z,70.2857
2023-03-07T07:09:44.816Z,70.3571
2023-03-07T07:10:44.885Z,70.2857
2023-03-07T07:11:44.901Z,70.3571
2023-03-07T07:12:44.933Z,70.2857
2023-03-07T07:13:44.961Z,70.2143
2023-03-07T07:14:44.996Z,70.1429
2023-03-07T07:15:45.025Z,70.2143
2023-03-07T07:16:45.121Z,70.0714
2023-03-07T07:17:45.093Z,70
2023-03-07T07:18:45.139Z,69.7857
2023-03-07T07:19:45.171Z,69.7143
2023-03-07T07:20:45.208Z,69.6429
2023-03-07T07:21:45.238Z,69.5714
2023-03-07T07:22:45.278Z,69.5
2023-03-07T07:23:45.308Z,69.3571
2023-03-07T07:24:45.354Z,69.2143
2023-03-07T07:25:45.378Z,69.1429
2023-03-07T07:26:45.416Z,69.0714
2023-03-07T07:27:45.454Z,69.0714
2023-03-07T07:28:45.488Z,69
2023-03-07T07:29:45.532Z,68.8571
2023-03-07T07:30:45.557Z,68.7143
2023-03-07T07:31:45.728Z,68.5714
2023-03-07T07:32:45.745Z,68.5
2023-03-07T07:33:45.646Z,68.3571
2023-03-07T07:34:45.676Z,68.3571
2023-03-07T07:35:45.736Z,68.2857
2023-03-07T07:36:45.748Z,68.2143
2023-03-07T07:37:45.789Z,68.1429
2023-03-07T07:38:45.829Z,68.1429
2023-03-07T07:39:45.860Z,68.2143
2023-03-07T07:40:45.894Z,68.2857
2023-03-07T07:41:45.935Z,68.2857
2023-03-07T07:42:45.961Z,68.1429
2023-03-07T07:43:45.998Z,68.0714
2023-03-07T07:44:46.025Z,67.9286
2023-03-07T07:45:46.170Z,67.9286
2023-03-07T07:46:46.090Z,67.9286
2023-03-07T07:47:46.127Z,67.9286
2023-03-07T07:48:46.160Z,68.0714
2023-03-07T07:49:46.197Z,68.2143
2023-03-07T07:50:46.261Z,68.2143
2023-03-07T07:51:46.271Z,68.0714
2023-03-07T07:52:46.305Z,67.9286
2023-03-07T07:53:46.318Z,67.9286
2023-03-07T07:54:46.357Z,68
2023-03-07T07:55:46.397Z,68
2023-03-07T07:56:46.425Z,67.9286
2023-03-07T07:57:46.452Z,67.9286
2023-03-07T07:58:46.474Z,67.8571
2023-03-07T07:59:46.513Z,67.7143
2023-03-07T08:00:46.553Z,67.5
2023-03-07T08:01:46.586Z,67.3571
2023-03-07T08:02:46.710Z,67.3571
2023-03-07T08:03:46.734Z,67.3571
2023-03-07T08:04:46.722Z,67.4286
2023-03-07T08:05:46.726Z,67.3571
2023-03-07T08:06:46.764Z,67.4286
2023-03-07T08:07:46.810Z,67.2857
2023-03-07T08:08:46.837Z,67.2857
2023-03-07T08:09:46.904Z,67.1429
2023-03-07T08:10:46.901Z,67.0714
2023-03-07T08:11:46.941Z,67
2023-03-07T08:12:46.974Z,67
2023-03-07T08:13:46.999Z,67.0714
2023-03-07T08:14:47.033Z,67.0714
2023-03-07T08:15:47.132Z,67.0714
2023-03-07T08:16:47.097Z,67.2143
2023-03-07T08:17:47.126Z,67.2857
2023-03-07T08:18:47.167Z,67.4286
2023-03-07T08:19:47.206Z,67.5714
2023-03-07T08:20:47.242Z,67.5714
2023-03-07T08:21:47.265Z,67.5714
2023-03-07T08:22:47.304Z,67.5714
2023-03-07T08:23:47.341Z,67.6429
2023-03-07T08:24:47.381Z,67.6429
2023-03-07T08:25:47.424Z,67.7143
2023-03-07T08:26:47.444Z,67.7143
2023-03-07T08:27:47.486Z,67.7857
2023-03-07T08:28:47.519Z,67.7143
2023-03-07T08:29:47.550Z,67.7857
2023-03-07T08:30:47.597Z,67.7857
2023-03-07T08:31:47.618Z,67.6429
2023-03-07T08:32:47.734Z,67.5714
2023-03-07T08:33:47.683Z,67.6429
2023-03-07T08:34:47.718Z,67.5
2023-03-07T08:35:47.785Z,67.3571
2023-03-07T08:36:47.767Z,67.2143
2023-03-07T08:37:47.833Z,67.2857
2023-03-07T08:38:47.834Z,67.3571
2023-03-07T08:39:47.886Z,67.1429
2023-03-07T08:40:47.910Z,66.9286
2023-03-07T08:41:47.953Z,66.9286
2023-03-07T08:42:47.971Z,66.7857
2023-03-07T08:43:48.021Z,66.5714
2023-03-07T08:44:48.056Z,66.5
2023-03-07T08:45:48.073Z,66.5714
2023-03-07T08:46:48.152Z,66.5714
2023-03-07T08:47:48.141Z,66.6429
2023-03-07T08:48:48.181Z,66.7143
2023-03-07T08:49:48.222Z,66.7143
2023-03-07T08:50:48.272Z,66.5
2023-03-07T08:51:48.299Z,66.4286
2023-03-07T08:52:48.326Z,66.3571
2023-03-07T08:53:48.354Z,66.3571
2023-03-07T08:54:48.376Z,66.3571
2023-03-07T08:55:48.420Z,66.3571
2023-03-07T08:56:48.479Z,66.3571
2023-03-07T08:57:48.475Z,66.2857
2023-03-07T08:58:48.516Z,66.3571
2023-03-07T08:59:48.568Z,66.2143
2023-03-07T09:00:48.578Z,66.2143
2023-03-07T09:01:48.664Z,66.2143
2023-03-07T09:02:48.656Z,65.9286
2023-03-07T09:03:48.681Z,65.7143
2023-03-07T09:04:48.792Z,65.7143
2023-03-07T09:05:48.745Z,65.6429
2023-03-07T09:06:48.783Z,65.7143
2023-03-07T09:07:48.810Z,65.7143
2023-03-07T09:08:48.847Z,65.7143
2023-03-07T09:09:48.877Z,65.5714
2023-03-07T09:10:48.911Z,65.5714
2023-03-07T09:11:48.941Z,65.5714
2023-03-07T09:12:48.975Z,65.5714
2023-03-07T09:13:52.351Z,65.5
2023-03-07T09:14:49.048Z,65.4286
2023-03-07T09:15:49.084Z,65.4286
2023-03-07T09:16:49.121Z,65.5714
2023-03-07T09:17:49.162Z,65.5714
2023-03-07T09:18:49.197Z,65.5
2023-03-07T09:19:49.217Z,65.6429
2023-03-07T09:20:49.259Z,65.6429
2023-03-07T09:21:49.293Z,65.6429
2023-03-07T09:22:49.326Z,65.7143
2023-03-07T09:23:49.367Z,65.6429
2023-03-07T09:24:49.397Z,65.7143
2023-03-07T09:25:49.542Z,65.6429
2023-03-07T09:26:49.467Z,65.5714
2023-03-07T09:27:51.620Z,65.5714
2023-03-07T09:28:49.532Z,65.5
2023-03-07T09:29:49.578Z,65.2857
2023-03-07T09:30:49.590Z,65.1429
2023-03-07T09:31:49.741Z,65.1429
2023-03-07T09:32:49.661Z,64.9286
2023-03-07T09:33:49.698Z,64.9286
2023-03-07T09:34:49.737Z,64.9286
2023-03-07T09:35:49.790Z,64.9286
2023-03-07T09:36:49.806Z,64.8571
2023-03-07T09:37:49.854Z,64.7857
2023-03-07T09:38:49.877Z,64.6429
2023-03-07T09:39:49.900Z,64.7143
2023-03-07T09:40:49.947Z,64.5714
2023-03-07T09:41:49.984Z,64.4286
2023-03-07T09:42:50.014Z,64.4286
2023-03-07T09:43:50.061Z,64.2857
2023-03-07T09:44:50.086Z,64.2857
2023-03-07T09:45:50.136Z,64.0714
2023-03-07T09:46:50.158Z,64
2023-03-07T09:47:50.205Z,64.1429
2023-03-07T09:48:50.238Z,64.0714
2023-03-07T09:49:50.270Z,63.8571
2023-03-07T09:50:50.308Z,63.7857
2023-03-07T09:51:50.338Z,63.8571
2023-03-07T09:52:50.365Z,63.7857
2023-03-07T09:53:50.404Z,63.8571
2023-03-07T09:54:50.430Z,63.5714
2023-03-07T09:55:50.459Z,63.3571
2023-03-07T09:56:50.498Z,63.1429
2023-03-07T09:57:50.549Z,63.0714
2023-03-07T09:58:50.563Z,63
2023-03-07T09:59:51.201Z,63.1429
2023-03-07T10:00:50.640Z,63.0714
2023-03-07T10:01:50.671Z,62.8571
2023-03-07T10:02:50.706Z,62.7143
2023-03-07T10:03:50.890Z,62.6429
2023-03-07T10:04:50.783Z,62.6429
2023-03-07T10:05:50.826Z,62.5714
2023-03-07T10:06:50.855Z,62.4286
2023-03-07T10:07:50.896Z,62.4286
2023-03-07T10:08:50.942Z,62.1429
2023-03-07T10:09:50.963Z,62.2857
2023-03-07T10:10:50.995Z,62.5
2023-03-07T10:11:51.081Z,62.3571
2023-03-07T10:12:51.053Z,62.2857
2023-03-07T10:13:51.090Z,62.2143
2023-03-07T10:14:51.129Z,61.7857
2023-03-07T10:15:51.231Z,61.7143
2023-03-07T10:16:51.248Z,61.6429
2023-03-07T10:17:51.231Z,61.8571
2023-03-07T10:18:51.276Z,62.1429
2023-03-07T10:19:51.300Z,62.2143
2023-03-07T10:20:51.342Z,62.1429
2023-03-07T10:21:51.377Z,61.7857
2023-03-07T10:22:51.415Z,61.6429
2023-03-07T10:23:51.448Z,61.4286
2023-03-07T10:24:51.488Z,61.2857
2023-03-07T10:25:51.530Z,61.0714
2023-03-07T10:26:51.566Z,60.0714
2023-03-07T10:27:51.587Z,59.6429
2023-03-07T10:28:51.630Z,59.6429
2023-03-07T10:29:51.691Z,59.7857
2023-03-07T10:30:51.693Z,58.4286
2023-03-07T10:31:51.811Z,58.1429
2023-03-07T10:32:51.862Z,58.0714
2023-03-07T10:33:51.816Z,58.5714
2023-03-07T10:34:51.845Z,58.4286
2023-03-07T10:35:51.934Z,58.5714
2023-03-07T10:37:06.589Z,59.0714
2023-03-07T10:37:51.955Z,58.8571
2023-03-07T10:38:51.970Z,59
2023-03-07T10:39:52.004Z,58.6429
2023-03-07T10:40:52.041Z,58.5714
2023-03-07T10:41:52.081Z,59.2143
2023-03-07T10:42:52.130Z,59
2023-03-07T10:43:52.158Z,58.8571
2023-03-07T10:44:52.194Z,59
2023-03-07T10:45:52.450Z,59.3571
2023-03-07T10:46:56.061Z,59.5714
2023-03-07T10:47:52.276Z,59.6429
2023-03-07T10:48:52.304Z,59.3571
2023-03-07T10:49:52.340Z,59
2023-03-07T10:50:52.374Z,59.0714
2023-03-07T10:51:52.402Z,58.7143
2023-03-07T10:52:52.437Z,58.9286
2023-03-07T10:53:52.479Z,59.1429
2023-03-07T10:54:52.510Z,59.3571
2023-03-07T10:55:52.548Z,59.1429
2023-03-07T10:56:52.590Z,59.1429
2023-03-07T10:57:52.629Z,59.1429
2023-03-07T10:58:52.665Z,58.9286
2023-03-07T10:59:52.694Z,58.7143
2023-03-07T11:00:52.728Z,58.6429
2023-03-07T11:01:52.771Z,58.8571
2023-03-07T11:02:52.806Z,58.3571
2023-03-07T11:03:55.332Z,58.5714
2023-03-07T11:04:52.966Z,58.1429
2023-03-07T11:05:52.932Z,58.2143
2023-03-07T11:06:52.959Z,58.2857
2023-03-07T11:07:52.984Z,58.3571
2023-03-07T11:08:53.021Z,58.4286
2023-03-07T11:09:53.048Z,58.2143
2023-03-07T11:10:53.081Z,57.7143
2023-03-07T11:11:53.117Z,57.5714
2023-03-07T11:12:53.147Z,57.9286
2023-03-07T11:13:53.174Z,57.7857
2023-03-07T11:14:53.259Z,57.5
2023-03-07T11:16:02.886Z,57.1429
2023-03-07T11:16:53.289Z,57
2023-03-07T11:17:53.312Z,56.8571
2023-03-07T11:18:53.352Z,57.1429
2023-03-07T11:19:53.384Z,57.1429
2023-03-07T11:20:53.444Z,57
2023-03-07T11:21:53.456Z,57.0714
2023-03-07T11:22:53.486Z,57.3571
2023-03-07T11:23:53.630Z,57.2857
2023-03-07T11:24:53.553Z,56.9286
2023-03-07T11:25:53.604Z,56.5
2023-03-07T11:26:53.630Z,56.7143
2023-03-07T11:27:53.708Z,56.7857
2023-03-07T11:28:53.710Z,56.7143
2023-03-07T11:29:53.722Z,56.5714
2023-03-07T11:30:53.797Z,56.0714
2023-03-07T11:31:53.792Z,56.0714
2023-03-07T11:32:53.823Z,55.9286
2023-03-07T11:33:59.512Z,56.2143
2023-03-07T11:34:53.905Z,56.2143
2023-03-07T11:35:53.997Z,56.3571
2023-03-07T11:36:53.970Z,56.3571
2023-03-07T11:37:54.000Z,55.7143
2023-03-07T11:38:54.024Z,55.8571
2023-03-07T11:39:54.064Z,55.9286
2023-03-07T11:40:54.107Z,55.7143
2023-03-07T11:41:54.137Z,55.8571
2023-03-07T11:42:54.184Z,55.5714
2023-03-07T11:43:54.229Z,55.7857
2023-03-07T11:44:54.250Z,55
2023-03-07T11:45:54.270Z,54.9286
2023-03-07T11:46:54.317Z,54.9286
2023-03-07T11:47:54.334Z,54.8571
2023-03-07T11:48:54.381Z,54.9286
2023-03-07T11:49:54.417Z,55.0714
2023-03-07T11:50:54.446Z,55.3571
2023-03-07T11:51:54.474Z,55.8571
2023-03-07T11:52:54.492Z,55.8571
2023-03-07T11:53:54.534Z,55.5
2023-03-07T11:54:54.575Z,55.0714
2023-03-07T11:55:54.602Z,55.5
2023-03-07T11:56:54.629Z,55.5
2023-03-07T11:57:54.663Z,55.5
2023-03-07T11:58:54.699Z,55.7857
2023-03-07T11:59:54.722Z,55.6429
2023-03-07T12:00:54.768Z,56
2023-03-07T12:01:54.793Z,55.7143
2023-03-07T12:02:54.861Z,56.0714
2023-03-07T12:03:54.859Z,55.9286
2023-03-07T12:04:54.902Z,56.2857
2023-03-07T12:05:54.944Z,56.4286
2023-03-07T12:06:54.976Z,56.5714
2023-03-07T12:07:55.007Z,56.7857
2023-03-07T12:08:55.029Z,56.9286
2023-03-07T12:09:55.099Z,56.5714
2023-03-07T12:10:55.103Z,56.9286
2023-03-07T12:11:55.142Z,56.7857
2023-03-07T12:12:55.170Z,56.8571
2023-03-07T12:13:55.214Z,57.2143
2023-03-07T12:14:55.251Z,57.2143
2023-03-07T12:15:55.344Z,57.3571